sensor_id;sensor_type;location;lat;lon;timestamp;pressure;altitude;pressure_sealevel;temperature;humidity
3260;BME280;68938;48.150;14.004;2023-06-14T00:02:23;97616.06;;;17.11;50.23
3260;BME280;68938;48.150;14.004;2023-06-14T00:04:50;97609.72;;;17.02;51.61
3260;BME280;68938;48.150;14.004;2023-06-14T00:07:17;97619.38;;;17.00;51.25
3260;BME280;68938;48.150;14.004;2023-06-14T00:09:44;97611.91;;;16.96;51.31
3260;BME280;68938;48.150;14.004;2023-06-14T00:12:12;97623.28;;;16.93;50.79
3260;BME280;68938;48.150;14.004;2023-06-14T00:14:38;97613.00;;;16.92;50.83
3260;BME280;68938;48.150;14.004;2023-06-14T00:17:05;97606.53;;;16.85;51.07
3260;BME280;68938;48.150;14.004;2023-06-14T00:19:32;97609.25;;;16.83;51.44
3260;BME280;68938;48.150;14.004;2023-06-14T00:21:59;97607.88;;;16.77;51.97
3260;BME280;68938;48.150;14.004;2023-06-14T00:24:26;97606.38;;;16.73;52.38
3260;BME280;68938;48.150;14.004;2023-06-14T00:26:53;97608.63;;;16.65;52.81
3260;BME280;68938;48.150;14.004;2023-06-14T00:29:20;97592.72;;;16.57;52.85
3260;BME280;68938;48.150;14.004;2023-06-14T00:31:47;97603.72;;;16.61;52.38
3260;BME280;68938;48.150;14.004;2023-06-14T00:34:14;97601.44;;;16.56;52.45
3260;BME280;68938;48.150;14.004;2023-06-14T00:36:41;97587.47;;;16.44;52.81
3260;BME280;68938;48.150;14.004;2023-06-14T00:39:08;97592.75;;;16.43;52.44
3260;BME280;68938;48.150;14.004;2023-06-14T00:41:35;97605.72;;;16.43;53.09
3260;BME280;68938;48.150;14.004;2023-06-14T00:44:02;97612.94;;;16.38;53.36
3260;BME280;68938;48.150;14.004;2023-06-14T00:46:29;97611.84;;;16.27;54.58
3260;BME280;68938;48.150;14.004;2023-06-14T00:48:58;97612.59;;;16.15;55.16
3260;BME280;68938;48.150;14.004;2023-06-14T00:51:27;97619.25;;;16.05;55.71
3260;BME280;68938;48.150;14.004;2023-06-14T00:53:54;97611.94;;;15.97;55.75
3260;BME280;68938;48.150;14.004;2023-06-14T00:56:21;97609.63;;;15.93;55.36
3260;BME280;68938;48.150;14.004;2023-06-14T00:58:49;97608.78;;;15.92;55.21
3260;BME280;68938;48.150;14.004;2023-06-14T01:01:16;97614.91;;;15.91;55.53
3260;BME280;68938;48.150;14.004;2023-06-14T01:03:43;97609.81;;;15.90;55.32
3260;BME280;68938;48.150;14.004;2023-06-14T01:06:31;97606.66;;;15.84;56.28
3260;BME280;68938;48.150;14.004;2023-06-14T01:12:04;97610.91;;;15.71;57.03
3260;BME280;68938;48.150;14.004;2023-06-14T01:14:42;97602.81;;;15.61;57.63
3260;BME280;68938;48.150;14.004;2023-06-14T01:17:09;97604.94;;;15.55;57.97
3260;BME280;68938;48.150;14.004;2023-06-14T01:19:37;97604.09;;;15.54;57.91
3260;BME280;68938;48.150;14.004;2023-06-14T01:22:04;97604.09;;;15.54;57.62
3260;BME280;68938;48.150;14.004;2023-06-14T01:24:31;97595.06;;;15.47;57.17
3260;BME280;68938;48.150;14.004;2023-06-14T01:26:59;97612.88;;;15.52;57.22
3260;BME280;68938;48.150;14.004;2023-06-14T01:29:27;97613.81;;;15.51;57.16
3260;BME280;68938;48.150;14.004;2023-06-14T01:31:54;97612.03;;;15.51;56.96
3260;BME280;68938;48.150;14.004;2023-06-14T01:34:21;97615.66;;;15.49;56.87
3260;BME280;68938;48.150;14.004;2023-06-14T01:36:49;97620.81;;;15.49;56.90
3260;BME280;68938;48.150;14.004;2023-06-14T01:39:17;97614.16;;;15.45;56.68
3260;BME280;68938;48.150;14.004;2023-06-14T01:41:45;97615.06;;;15.44;57.31
3260;BME280;68938;48.150;14.004;2023-06-14T01:44:14;97616.72;;;15.45;57.04
3260;BME280;68938;48.150;14.004;2023-06-14T01:46:43;97616.84;;;15.43;57.31
3260;BME280;68938;48.150;14.004;2023-06-14T01:49:11;97618.66;;;15.41;57.54
3260;BME280;68938;48.150;14.004;2023-06-14T01:51:38;97612.00;;;15.37;56.70
3260;BME280;68938;48.150;14.004;2023-06-14T01:54:05;97619.59;;;15.40;57.28
3260;BME280;68938;48.150;14.004;2023-06-14T01:56:32;97613.78;;;15.36;57.50
3260;BME280;68938;48.150;14.004;2023-06-14T01:58:59;97622.53;;;15.34;57.56
3260;BME280;68938;48.150;14.004;2023-06-14T02:01:25;97615.53;;;15.36;57.03
3260;BME280;68938;48.150;14.004;2023-06-14T02:03:52;97610.53;;;15.33;57.04
3260;BME280;68938;48.150;14.004;2023-06-14T02:06:19;97624.28;;;15.33;56.93
3260;BME280;68938;48.150;14.004;2023-06-14T02:08:46;97618.47;;;15.30;57.46
3260;BME280;68938;48.150;14.004;2023-06-14T02:11:13;97624.72;;;15.26;57.78
3260;BME280;68938;48.150;14.004;2023-06-14T02:13:40;97619.81;;;15.21;58.00
3260;BME280;68938;48.150;14.004;2023-06-14T02:16:07;97626.81;;;15.19;57.91
3260;BME280;68938;48.150;14.004;2023-06-14T02:18:34;97626.91;;;15.17;57.75
3260;BME280;68938;48.150;14.004;2023-06-14T02:21:01;97628.00;;;15.13;58.03
3260;BME280;68938;48.150;14.004;2023-06-14T02:23:27;97615.34;;;15.09;57.80
3260;BME280;68938;48.150;14.004;2023-06-14T02:25:54;97621.16;;;15.12;57.63
3260;BME280;68938;48.150;14.004;2023-06-14T02:28:21;97625.69;;;15.09;58.04
3260;BME280;68938;48.150;14.004;2023-06-14T02:30:48;97625.94;;;15.04;58.31
3260;BME280;68938;48.150;14.004;2023-06-14T02:33:15;97619.25;;;15.00;58.36
3260;BME280;68938;48.150;14.004;2023-06-14T02:35:42;97625.53;;;14.96;58.44
3260;BME280;68938;48.150;14.004;2023-06-14T02:38:09;97626.28;;;14.98;58.29
3260;BME280;68938;48.150;14.004;2023-06-14T02:40:36;97631.69;;;14.93;58.01
3260;BME280;68938;48.150;14.004;2023-06-14T02:43:03;97632.44;;;14.96;58.42
3260;BME280;68938;48.150;14.004;2023-06-14T02:45:30;97633.44;;;14.93;58.87
3260;BME280;68938;48.150;14.004;2023-06-14T02:47:56;97638.72;;;14.91;58.55
3260;BME280;68938;48.150;14.004;2023-06-14T02:50:24;97637.03;;;14.90;58.28
3260;BME280;68938;48.150;14.004;2023-06-14T02:52:51;97635.53;;;14.86;58.64
3260;BME280;68938;48.150;14.004;2023-06-14T02:55:17;97633.13;;;14.83;58.99
3260;BME280;68938;48.150;14.004;2023-06-14T02:57:44;97632.28;;;14.83;58.76
3260;BME280;68938;48.150;14.004;2023-06-14T03:00:12;97642.06;;;14.78;59.45
3260;BME280;68938;48.150;14.004;2023-06-14T03:02:40;97641.22;;;14.77;59.22
3260;BME280;68938;48.150;14.004;2023-06-14T03:05:07;97635.41;;;14.74;59.42
3260;BME280;68938;48.150;14.004;2023-06-14T03:07:34;97643.53;;;14.66;60.02
3260;BME280;68938;48.150;14.004;2023-06-14T03:10:01;97641.22;;;14.61;60.48
3260;BME280;68938;48.150;14.004;2023-06-14T03:12:27;97645.53;;;14.61;59.96
3260;BME280;68938;48.150;14.004;2023-06-14T03:14:54;97639.56;;;14.60;60.00
3260;BME280;68938;48.150;14.004;2023-06-14T03:17:21;97640.38;;;14.61;60.05
3260;BME280;68938;48.150;14.004;2023-06-14T03:19:48;97638.72;;;14.60;60.22
3260;BME280;68938;48.150;14.004;2023-06-14T03:22:15;97641.47;;;14.57;60.53
3260;BME280;68938;48.150;14.004;2023-06-14T03:24:42;97644.78;;;14.59;60.02
3260;BME280;68938;48.150;14.004;2023-06-14T03:27:09;97644.06;;;14.57;60.83
3260;BME280;68938;48.150;14.004;2023-06-14T03:29:36;97641.53;;;14.55;60.88
3260;BME280;68938;48.150;14.004;2023-06-14T03:32:03;97642.47;;;14.54;60.69
3260;BME280;68938;48.150;14.004;2023-06-14T03:34:30;97649.44;;;14.52;60.72
3260;BME280;68938;48.150;14.004;2023-06-14T03:36:57;97651.31;;;14.49;60.40
3260;BME280;68938;48.150;14.004;2023-06-14T03:39:24;97653.72;;;14.53;60.31
3260;BME280;68938;48.150;14.004;2023-06-14T03:41:51;97646.41;;;14.44;60.27
3260;BME280;68938;48.150;14.004;2023-06-14T03:44:18;97636.59;;;14.35;61.28
3260;BME280;68938;48.150;14.004;2023-06-14T03:46:46;97650.25;;;14.37;61.66
3260;BME280;68938;48.150;14.004;2023-06-14T03:49:13;97652.31;;;14.30;61.46
3260;BME280;68938;48.150;14.004;2023-06-14T03:51:40;97653.25;;;14.29;61.58
3260;BME280;68938;48.150;14.004;2023-06-14T03:54:08;97671.66;;;14.21;61.89
3260;BME280;68938;48.150;14.004;2023-06-14T03:56:38;97673.44;;;14.21;62.04
3260;BME280;68938;48.150;14.004;2023-06-14T03:59:05;97677.59;;;14.23;61.85
3260;BME280;68938;48.150;14.004;2023-06-14T04:01:32;97683.84;;;14.19;62.51
3260;BME280;68938;48.150;14.004;2023-06-14T04:03:59;97681.16;;;14.21;61.91
3260;BME280;68938;48.150;14.004;2023-06-14T04:06:26;97683.06;;;14.17;61.68
3260;BME280;68938;48.150;14.004;2023-06-14T04:08:53;97684.41;;;14.09;62.56
3260;BME280;68938;48.150;14.004;2023-06-14T04:11:20;97689.31;;;14.13;62.50
3260;BME280;68938;48.150;14.004;2023-06-14T04:13:47;97685.06;;;14.12;63.07
3260;BME280;68938;48.150;14.004;2023-06-14T04:16:14;97675.97;;;14.05;62.79
3260;BME280;68938;48.150;14.004;2023-06-14T04:18:41;97697.88;;;14.14;63.70
3260;BME280;68938;48.150;14.004;2023-06-14T04:21:08;97692.59;;;13.99;64.05
3260;BME280;68938;48.150;14.004;2023-06-14T04:23:34;97686.78;;;13.79;64.27
3260;BME280;68938;48.150;14.004;2023-06-14T04:26:01;97697.81;;;13.98;64.17
3260;BME280;68938;48.150;14.004;2023-06-14T04:28:28;97694.88;;;14.06;63.80
3260;BME280;68938;48.150;14.004;2023-06-14T04:30:55;97696.78;;;14.18;63.23
3260;BME280;68938;48.150;14.004;2023-06-14T04:33:22;97696.41;;;14.26;63.50
3260;BME280;68938;48.150;14.004;2023-06-14T04:35:49;97698.28;;;14.39;62.97
3260;BME280;68938;48.150;14.004;2023-06-14T04:38:20;97695.16;;;14.50;62.41
3260;BME280;68938;48.150;14.004;2023-06-14T04:40:46;97696.72;;;14.53;62.26
3260;BME280;68938;48.150;14.004;2023-06-14T04:43:25;97698.25;;;14.57;62.33
3260;BME280;68938;48.150;14.004;2023-06-14T04:45:53;97678.97;;;14.46;62.26
3260;BME280;68938;48.150;14.004;2023-06-14T04:48:21;97705.09;;;14.74;61.91
3260;BME280;68938;48.150;14.004;2023-06-14T04:50:48;97707.16;;;14.83;62.09
3260;BME280;68938;48.150;14.004;2023-06-14T04:53:15;97708.59;;;14.88;61.50
3260;BME280;68938;48.150;14.004;2023-06-14T04:55:42;97717.34;;;15.02;61.07
3260;BME280;68938;48.150;14.004;2023-06-14T04:58:09;97713.78;;;15.04;60.94
3260;BME280;68938;48.150;14.004;2023-06-14T05:00:36;97715.25;;;15.08;61.21
3260;BME280;68938;48.150;14.004;2023-06-14T05:03:03;97720.00;;;15.16;60.62
3260;BME280;68938;48.150;14.004;2023-06-14T05:05:30;97718.41;;;15.29;60.17
3260;BME280;68938;48.150;14.004;2023-06-14T05:07:57;97721.31;;;15.39;60.00
3260;BME280;68938;48.150;14.004;2023-06-14T05:10:24;97719.56;;;15.39;59.71
3260;BME280;68938;48.150;14.004;2023-06-14T05:12:51;97720.53;;;15.53;59.84
3260;BME280;68938;48.150;14.004;2023-06-14T05:15:18;97723.44;;;15.62;58.68
3260;BME280;68938;48.150;14.004;2023-06-14T05:17:46;97727.38;;;15.70;58.65
3260;BME280;68938;48.150;14.004;2023-06-14T05:20:13;97715.81;;;15.75;58.58
3260;BME280;68938;48.150;14.004;2023-06-14T05:22:40;97721.50;;;15.96;58.09
3260;BME280;68938;48.150;14.004;2023-06-14T05:25:07;97723.19;;;16.11;57.15
3260;BME280;68938;48.150;14.004;2023-06-14T05:27:34;97728.09;;;16.30;56.95
3260;BME280;68938;48.150;14.004;2023-06-14T05:30:01;97734.31;;;16.42;55.73
3260;BME280;68938;48.150;14.004;2023-06-14T05:32:28;97730.53;;;16.62;55.29
3260;BME280;68938;48.150;14.004;2023-06-14T05:34:55;97727.47;;;16.84;55.50
3260;BME280;68938;48.150;14.004;2023-06-14T05:37:22;97739.06;;;17.05;54.46
3260;BME280;68938;48.150;14.004;2023-06-14T05:39:49;97736.00;;;17.27;54.19
3260;BME280;68938;48.150;14.004;2023-06-14T05:42:16;97745.28;;;17.44;53.30
3260;BME280;68938;48.150;14.004;2023-06-14T05:44:43;97743.25;;;17.62;52.36
3260;BME280;68938;48.150;14.004;2023-06-14T05:47:09;97754.56;;;17.88;51.99
3260;BME280;68938;48.150;14.004;2023-06-14T05:49:36;97741.94;;;18.09;51.39
3260;BME280;68938;48.150;14.004;2023-06-14T05:52:03;97737.38;;;18.26;50.94
3260;BME280;68938;48.150;14.004;2023-06-14T05:54:31;97734.03;;;18.49;50.55
3260;BME280;68938;48.150;14.004;2023-06-14T05:56:58;97740.19;;;18.74;50.54
3260;BME280;68938;48.150;14.004;2023-06-14T05:59:24;97738.47;;;18.98;49.26
3260;BME280;68938;48.150;14.004;2023-06-14T06:01:51;97739.34;;;19.10;49.11
3260;BME280;68938;48.150;14.004;2023-06-14T06:04:18;97735.22;;;19.31;48.96
3260;BME280;68938;48.150;14.004;2023-06-14T06:06:45;97729.16;;;19.55;48.06
3260;BME280;68938;48.150;14.004;2023-06-14T06:09:12;97731.31;;;19.74;47.64
3260;BME280;68938;48.150;14.004;2023-06-14T06:11:40;97735.72;;;19.96;48.26
3260;BME280;68938;48.150;14.004;2023-06-14T06:14:19;97734.00;;;20.19;47.30
3260;BME280;68938;48.150;14.004;2023-06-14T06:16:45;97731.78;;;20.25;46.73
3260;BME280;68938;48.150;14.004;2023-06-14T06:19:12;97733.47;;;20.38;46.46
3260;BME280;68938;48.150;14.004;2023-06-14T06:21:39;97742.47;;;20.45;46.50
3260;BME280;68938;48.150;14.004;2023-06-14T06:24:06;97734.09;;;20.64;45.62
3260;BME280;68938;48.150;14.004;2023-06-14T06:26:33;97734.28;;;20.49;45.53
3260;BME280;68938;48.150;14.004;2023-06-14T06:29:00;97735.84;;;20.74;46.03
3260;BME280;68938;48.150;14.004;2023-06-14T06:31:27;97742.97;;;20.83;45.72
3260;BME280;68938;48.150;14.004;2023-06-14T06:33:54;97744.97;;;20.91;46.32
3260;BME280;68938;48.150;14.004;2023-06-14T06:36:22;97742.69;;;21.09;45.68
3260;BME280;68938;48.150;14.004;2023-06-14T06:38:49;97750.72;;;21.28;45.63
3260;BME280;68938;48.150;14.004;2023-06-14T06:41:18;97752.59;;;21.49;45.14
3260;BME280;68938;48.150;14.004;2023-06-14T06:43:45;97748.59;;;21.66;45.27
3260;BME280;68938;48.150;14.004;2023-06-14T06:46:12;97746.97;;;21.65;43.62
3260;BME280;68938;48.150;14.004;2023-06-14T06:48:39;97756.13;;;21.80;43.08
3260;BME280;68938;48.150;14.004;2023-06-14T06:51:06;97755.13;;;21.92;42.91
3260;BME280;68938;48.150;14.004;2023-06-14T06:53:33;97773.59;;;22.00;44.42
3260;BME280;68938;48.150;14.004;2023-06-14T06:56:10;97759.41;;;22.14;43.48
3260;BME280;68938;48.150;14.004;2023-06-14T06:58:37;97768.47;;;22.31;43.77
3260;BME280;68938;48.150;14.004;2023-06-14T07:01:04;97757.13;;;22.42;42.36
3260;BME280;68938;48.150;14.004;2023-06-14T07:03:31;97764.59;;;22.46;41.56
3260;BME280;68938;48.150;14.004;2023-06-14T07:05:58;97758.91;;;22.41;41.18
3260;BME280;68938;48.150;14.004;2023-06-14T07:08:25;97763.22;;;22.52;41.08
3260;BME280;68938;48.150;14.004;2023-06-14T07:10:52;97766.31;;;22.36;40.76
3260;BME280;68938;48.150;14.004;2023-06-14T07:13:19;97758.25;;;22.49;41.44
3260;BME280;68938;48.150;14.004;2023-06-14T07:15:46;97753.44;;;22.44;41.21
3260;BME280;68938;48.150;14.004;2023-06-14T07:18:13;97754.34;;;22.64;39.94
3260;BME280;68938;48.150;14.004;2023-06-14T07:20:42;97760.50;;;22.54;40.64
3260;BME280;68938;48.150;14.004;2023-06-14T07:23:09;97759.63;;;22.74;39.89
3260;BME280;68938;48.150;14.004;2023-06-14T07:25:36;97762.81;;;22.78;39.96
3260;BME280;68938;48.150;14.004;2023-06-14T07:28:03;97762.81;;;22.78;40.09
3260;BME280;68938;48.150;14.004;2023-06-14T07:30:30;97767.78;;;22.90;39.91
3260;BME280;68938;48.150;14.004;2023-06-14T07:32:57;97761.16;;;22.86;39.42
3260;BME280;68938;48.150;14.004;2023-06-14T07:35:24;97759.66;;;22.84;40.13
3260;BME280;68938;48.150;14.004;2023-06-14T07:37:51;97759.38;;;22.87;39.33
3260;BME280;68938;48.150;14.004;2023-06-14T07:40:18;97755.78;;;22.78;39.92
3260;BME280;68938;48.150;14.004;2023-06-14T07:42:44;97758.66;;;23.06;39.39
3260;BME280;68938;48.150;14.004;2023-06-14T07:45:13;97768.31;;;23.25;39.32
3260;BME280;68938;48.150;14.004;2023-06-14T07:47:41;97762.19;;;23.35;38.82
3260;BME280;68938;48.150;14.004;2023-06-14T07:50:09;97767.16;;;23.58;40.10
3260;BME280;68938;48.150;14.004;2023-06-14T07:52:36;97770.63;;;23.78;37.85
3260;BME280;68938;48.150;14.004;2023-06-14T07:55:03;97768.84;;;23.98;38.08
3260;BME280;68938;48.150;14.004;2023-06-14T07:57:30;97771.06;;;23.83;38.13
3260;BME280;68938;48.150;14.004;2023-06-14T07:59:57;97772.84;;;23.73;38.93
3260;BME280;68938;48.150;14.004;2023-06-14T08:02:24;97772.72;;;23.94;39.20
3260;BME280;68938;48.150;14.004;2023-06-14T08:04:52;97780.97;;;23.99;40.17
3260;BME280;68938;48.150;14.004;2023-06-14T08:07:19;97769.38;;;23.92;38.32
3260;BME280;68938;48.150;14.004;2023-06-14T08:09:46;97774.06;;;24.17;38.70
3260;BME280;68938;48.150;14.004;2023-06-14T08:12:13;97770.72;;;24.34;37.42
3260;BME280;68938;48.150;14.004;2023-06-14T08:14:40;97778.28;;;24.57;37.01
3260;BME280;68938;48.150;14.004;2023-06-14T08:17:08;97782.94;;;24.63;37.00
3260;BME280;68938;48.150;14.004;2023-06-14T08:19:35;97768.31;;;24.61;36.37
3260;BME280;68938;48.150;14.004;2023-06-14T08:22:02;97791.41;;;24.38;36.81
3260;BME280;68938;48.150;14.004;2023-06-14T08:24:29;97780.38;;;24.44;37.08
3260;BME280;68938;48.150;14.004;2023-06-14T08:26:57;97773.84;;;24.57;37.17
3260;BME280;68938;48.150;14.004;2023-06-14T08:29:23;97779.91;;;24.58;36.42
3260;BME280;68938;48.150;14.004;2023-06-14T08:31:50;97781.31;;;24.52;36.29
3260;BME280;68938;48.150;14.004;2023-06-14T08:34:17;97781.06;;;24.26;37.38
3260;BME280;68938;48.150;14.004;2023-06-14T08:36:44;97776.66;;;24.46;37.59
3260;BME280;68938;48.150;14.004;2023-06-14T08:39:11;97772.81;;;24.78;38.77
3260;BME280;68938;48.150;14.004;2023-06-14T08:41:38;97777.88;;;24.89;36.72
3260;BME280;68938;48.150;14.004;2023-06-14T08:44:05;97782.63;;;24.76;37.31
3260;BME280;68938;48.150;14.004;2023-06-14T08:46:33;97775.31;;;25.07;36.79
3260;BME280;68938;48.150;14.004;2023-06-14T08:49:01;97779.38;;;24.92;36.54
3260;BME280;68938;48.150;14.004;2023-06-14T08:51:31;97779.00;;;24.87;37.37
3260;BME280;68938;48.150;14.004;2023-06-14T08:53:58;97774.91;;;25.12;36.79
3260;BME280;68938;48.150;14.004;2023-06-14T08:56:26;97782.69;;;25.49;35.78
3260;BME280;68938;48.150;14.004;2023-06-14T08:58:55;97776.38;;;25.77;35.79
3260;BME280;68938;48.150;14.004;2023-06-14T09:01:25;97772.94;;;25.77;37.09
3260;BME280;68938;48.150;14.004;2023-06-14T09:03:52;97772.34;;;26.01;35.43
3260;BME280;68938;48.150;14.004;2023-06-14T09:06:19;97769.19;;;26.15;35.47
3260;BME280;68938;48.150;14.004;2023-06-14T09:08:47;97773.91;;;26.12;33.61
3260;BME280;68938;48.150;14.004;2023-06-14T09:11:17;97774.47;;;26.15;34.14
3260;BME280;68938;48.150;14.004;2023-06-14T09:13:46;97773.81;;;26.39;34.13
3260;BME280;68938;48.150;14.004;2023-06-14T09:16:14;97774.16;;;26.70;35.07
3260;BME280;68938;48.150;14.004;2023-06-14T09:18:43;97768.84;;;26.97;32.61
3260;BME280;68938;48.150;14.004;2023-06-14T09:21:11;97774.56;;;27.18;32.77
3260;BME280;68938;48.150;14.004;2023-06-14T09:23:46;97769.53;;;27.07;32.35
3260;BME280;68938;48.150;14.004;2023-06-14T09:26:18;97777.56;;;26.97;31.43
3260;BME280;68938;48.150;14.004;2023-06-14T09:28:49;97767.19;;;26.96;33.89
3260;BME280;68938;48.150;14.004;2023-06-14T09:31:17;97774.72;;;26.90;33.17
3260;BME280;68938;48.150;14.004;2023-06-14T09:33:50;97764.34;;;26.81;32.93
3260;BME280;68938;48.150;14.004;2023-06-14T09:36:18;97771.03;;;27.09;32.08
3260;BME280;68938;48.150;14.004;2023-06-14T09:39:02;97763.97;;;27.10;31.95
3260;BME280;68938;48.150;14.004;2023-06-14T09:41:41;97770.97;;;27.27;32.76
3260;BME280;68938;48.150;14.004;2023-06-14T09:44:10;97772.69;;;27.10;32.96
3260;BME280;68938;48.150;14.004;2023-06-14T09:46:45;97767.19;;;26.96;32.35
3260;BME280;68938;48.150;14.004;2023-06-14T09:49:13;97769.75;;;27.13;32.73
3260;BME280;68938;48.150;14.004;2023-06-14T09:51:45;97766.69;;;27.34;33.43
3260;BME280;68938;48.150;14.004;2023-06-14T09:54:16;97766.72;;;27.43;31.88
3260;BME280;68938;48.150;14.004;2023-06-14T09:56:47;97759.09;;;27.23;31.34
3260;BME280;68938;48.150;14.004;2023-06-14T09:59:16;97766.03;;;27.32;30.95
3260;BME280;68938;48.150;14.004;2023-06-14T10:01:47;97769.03;;;27.54;32.26
3260;BME280;68938;48.150;14.004;2023-06-14T10:04:15;97765.28;;;27.56;31.10
3260;BME280;68938;48.150;14.004;2023-06-14T10:06:46;97765.41;;;27.47;31.80
3260;BME280;68938;48.150;14.004;2023-06-14T10:09:15;97761.31;;;27.52;30.95
3260;BME280;68938;48.150;14.004;2023-06-14T10:11:42;97756.53;;;27.64;30.94
3260;BME280;68938;48.150;14.004;2023-06-14T10:14:11;97761.59;;;27.41;31.71
3260;BME280;68938;48.150;14.004;2023-06-14T10:19:22;97749.63;;;27.71;30.83
3260;BME280;68938;48.150;14.004;2023-06-14T10:24:45;97758.28;;;26.88;31.42
3260;BME280;68938;48.150;14.004;2023-06-14T10:27:13;97753.13;;;27.13;31.63
3260;BME280;68938;48.150;14.004;2023-06-14T10:32:23;97754.19;;;27.28;31.26
3260;BME280;68938;48.150;14.004;2023-06-14T10:34:59;97753.41;;;27.52;30.98
3260;BME280;68938;48.150;14.004;2023-06-14T10:37:36;97747.53;;;27.91;33.43
3260;BME280;68938;48.150;14.004;2023-06-14T10:40:03;97748.47;;;28.23;31.39
3260;BME280;68938;48.150;14.004;2023-06-14T10:42:32;97756.06;;;28.26;29.23
3260;BME280;68938;48.150;14.004;2023-06-14T10:45:00;97759.38;;;28.20;30.06
3260;BME280;68938;48.150;14.004;2023-06-14T10:47:31;97752.97;;;27.81;29.77
3260;BME280;68938;48.150;14.004;2023-06-14T10:52:31;97752.97;;;28.14;30.23
3260;BME280;68938;48.150;14.004;2023-06-14T10:55:10;97735.31;;;28.31;29.91
3260;BME280;68938;48.150;14.004;2023-06-14T10:57:49;97738.44;;;28.43;28.60
3260;BME280;68938;48.150;14.004;2023-06-14T11:00:24;97739.13;;;27.87;31.00
3260;BME280;68938;48.150;14.004;2023-06-14T11:03:49;97736.47;;;27.96;29.63
3260;BME280;68938;48.150;14.004;2023-06-14T11:06:22;97726.91;;;28.11;30.22
3260;BME280;68938;48.150;14.004;2023-06-14T11:11:56;97722.69;;;28.57;28.90
3260;BME280;68938;48.150;14.004;2023-06-14T11:29:36;97713.47;;;29.32;27.74
3260;BME280;68938;48.150;14.004;2023-06-14T11:32:07;97712.59;;;29.40;27.07
3260;BME280;68938;48.150;14.004;2023-06-14T11:34:34;97696.63;;;29.02;26.35
3260;BME280;68938;48.150;14.004;2023-06-14T11:37:01;97706.50;;;29.08;28.30
3260;BME280;68938;48.150;14.004;2023-06-14T11:39:28;97701.94;;;29.25;27.18
3260;BME280;68938;48.150;14.004;2023-06-14T11:41:55;97692.09;;;29.42;27.00
3260;BME280;68938;48.150;14.004;2023-06-14T11:44:22;97704.78;;;29.46;26.36
3260;BME280;68938;48.150;14.004;2023-06-14T11:46:49;97696.47;;;28.95;26.23
3260;BME280;68938;48.150;14.004;2023-06-14T11:49:16;97702.56;;;29.04;26.05
3260;BME280;68938;48.150;14.004;2023-06-14T11:51:43;97683.63;;;28.53;26.42
3260;BME280;68938;48.150;14.004;2023-06-14T11:54:10;97702.22;;;28.68;26.54
3260;BME280;68938;48.150;14.004;2023-06-14T11:56:37;97693.03;;;28.55;29.09
3260;BME280;68938;48.150;14.004;2023-06-14T11:59:04;97699.03;;;28.80;28.23
3260;BME280;68938;48.150;14.004;2023-06-14T12:01:31;97689.59;;;28.86;26.46
3260;BME280;68938;48.150;14.004;2023-06-14T12:03:59;97687.50;;;29.13;26.60
3260;BME280;68938;48.150;14.004;2023-06-14T12:06:27;97685.44;;;29.00;26.48
3260;BME280;68938;48.150;14.004;2023-06-14T12:08:56;97688.34;;;29.13;25.37
3260;BME280;68938;48.150;14.004;2023-06-14T12:11:32;97681.34;;;29.20;26.90
3260;BME280;68938;48.150;14.004;2023-06-14T12:14:03;97673.31;;;29.14;26.01
3260;BME280;68938;48.150;14.004;2023-06-14T12:16:36;97683.00;;;29.21;27.43
3260;BME280;68938;48.150;14.004;2023-06-14T12:19:16;97680.34;;;29.21;26.13
3260;BME280;68938;48.150;14.004;2023-06-14T12:21:47;97684.28;;;29.25;27.62
3260;BME280;68938;48.150;14.004;2023-06-14T12:24:14;97677.66;;;29.07;26.42
3260;BME280;68938;48.150;14.004;2023-06-14T12:26:42;97681.72;;;28.39;25.75
3260;BME280;68938;48.150;14.004;2023-06-14T12:29:09;97670.44;;;28.53;26.85
3260;BME280;68938;48.150;14.004;2023-06-14T12:31:36;97664.22;;;28.77;26.39
3260;BME280;68938;48.150;14.004;2023-06-14T12:34:03;97667.41;;;29.03;27.10
3260;BME280;68938;48.150;14.004;2023-06-14T12:36:30;97679.78;;;29.34;25.65
3260;BME280;68938;48.150;14.004;2023-06-14T12:38:57;97677.75;;;29.36;27.00
3260;BME280;68938;48.150;14.004;2023-06-14T12:41:24;97685.22;;;29.56;25.84
3260;BME280;68938;48.150;14.004;2023-06-14T12:43:51;97684.78;;;29.90;26.21
3260;BME280;68938;48.150;14.004;2023-06-14T12:46:18;97682.69;;;29.85;26.78
3260;BME280;68938;48.150;14.004;2023-06-14T12:48:46;97678.91;;;29.65;28.17
3260;BME280;68938;48.150;14.004;2023-06-14T12:51:13;97689.22;;;29.51;27.91
3260;BME280;68938;48.150;14.004;2023-06-14T12:53:39;97692.38;;;29.47;27.89
3260;BME280;68938;48.150;14.004;2023-06-14T12:56:06;97682.63;;;29.24;28.62
3260;BME280;68938;48.150;14.004;2023-06-14T12:58:33;97693.00;;;28.95;28.73
3260;BME280;68938;48.150;14.004;2023-06-14T13:01:00;97688.66;;;28.71;28.93
3260;BME280;68938;48.150;14.004;2023-06-14T13:03:27;97700.63;;;28.50;29.35
3260;BME280;68938;48.150;14.004;2023-06-14T13:05:54;97703.16;;;28.19;29.42
3260;BME280;68938;48.150;14.004;2023-06-14T13:08:21;97700.88;;;28.00;29.97
3260;BME280;68938;48.150;14.004;2023-06-14T13:10:51;97702.72;;;27.91;29.56
3260;BME280;68938;48.150;14.004;2023-06-14T13:13:18;97698.22;;;28.16;29.52
3260;BME280;68938;48.150;14.004;2023-06-14T13:15:45;97701.88;;;28.07;29.52
3260;BME280;68938;48.150;14.004;2023-06-14T13:18:12;97700.47;;;28.52;29.32
3260;BME280;68938;48.150;14.004;2023-06-14T13:20:39;97698.38;;;28.78;29.33
3260;BME280;68938;48.150;14.004;2023-06-14T13:23:06;97695.41;;;29.13;28.43
3260;BME280;68938;48.150;14.004;2023-06-14T13:25:35;97689.34;;;29.35;28.42
3260;BME280;68938;48.150;14.004;2023-06-14T13:28:06;97693.72;;;29.43;28.13
3260;BME280;68938;48.150;14.004;2023-06-14T13:30:33;97693.00;;;29.34;27.74
3260;BME280;68938;48.150;14.004;2023-06-14T13:33:01;97693.09;;;29.64;27.89
3260;BME280;68938;48.150;14.004;2023-06-14T13:35:28;97695.78;;;29.56;27.57
3260;BME280;68938;48.150;14.004;2023-06-14T13:37:55;97690.84;;;29.29;27.38